首页
METAR-TAF:

METAR-TAF

机场 :

马哈赞加, 马达加斯加

纬度: 15-40S, 经度: 046-21E, 海拔: 26米

当前天气观测

该预报发布于41分钟前的08:00 UTC
风速6节,风向南转南东,在东转东南西南之间变化
温度 33°C
湿度 41%
气压 1014 hPa
能见度10公里或以上
1500米以下无云,无积雨云

METAR: FMNM 160800Z 16006KT 120V230 CAVOK 33/18 Q1014 NOSIG

时间: 11:41 (08:41 UTC)

预报

该预报发布于3小时和41分钟前的05:00 UTC
预报有效从16日的 06点(UTC)到 17日的 06点(UTC)
风速5节,风向
能见度10公里或以上
少量云层高于4000英尺
成为
从 16日的 11点(UTC)到 16日的 13点(UTC)
风速10节,风向西
成为
从 16日的 18点(UTC)到 16日的 21点(UTC)
风速5节,风向东转东北

TAF: FMNM 160500Z 1606/1706 10005KT 9999 FEW040 BECMG 1611/1613 28010KT BECMG 1618/1621 06005KT

超过4000个机场的气象观测和天气预报(METAR&TAF报告)。

可查询的气象台以黄色和红色小点在地图上表示。

将鼠标移到小点上方,可查看气象台名称。

然后点击查看天气观测和预报。

如需切换地图:点击带黑十字的绿色按钮放大地图;点击带横线的绿色按钮缩小地图;或者点击绿色箭头查看邻近地区的地图。


METAR-TAF: